• Join FlightAware (Why Join?)
  • Login
  • US Flag 
02:46PM EDT


 

Airport Tracker/Info


-or-


 

Live Flight TrackerFlight Track Log ✈ AAY974 ✈ 14-Jun-2013 ✈ KPGD - KTOL

Flight Track Log - Related Links

Times and Time Zones

All times are in EDT time to prevent confusion due to time zone crossing. See the AAY974 flight status page for this flight to view local times or setup timezone preferences in your user account.

Time Position Orientation Groundspeed Altitude Reporting Facility
EDT Latitude Longitude Course Direction KTS MPH feet Rate Location/Type
07:21AM 27.0003 -81.9406 355° North 210 242 3,300  Level Miami Center
07:22AM 27.0694 -81.9392 North 217 250 5,100 2,280 Climbing Miami Center
07:23AM 27.1461 -81.9494 353° North 245 282 7,900 2,700 Climbing Miami Center
07:24AM 27.2253 -81.9553 356° North 268 308 10,500 1,800 Climbing Miami Center
07:25AM 27.3128 -81.9636 355° North 294 338 11,500 1,200 Climbing Miami Center
07:26AM 27.4643 -82.0484 355° North  Level Estimated
07:26AM 27.4169 -81.9683 358° North 335 386 13,000  Level Miami Center
07:28AM 27.6419 -81.9839 356° North 387 445 17,000 1,860 Climbing Jacksonville Center
07:30AM 27.8986 -82.0025 356° North 429 494 20,600 1,620 Climbing Jacksonville Center
07:31AM 28.0158 -82.0464 342° North 440 506 21,900 1,260 Climbing Jacksonville Center
07:32AM 28.1103 -82.1372 320° Northwest 427 491 23,200 1,260 Climbing Jacksonville Center
07:33AM 28.2192 -82.2189 327° Northwest 448 516 24,500 1,560 Climbing Jacksonville Center
07:34AM 28.3197 -82.3125 321° Northwest 466 536 26,400 2,040 Climbing Jacksonville Center
07:35AM 28.4139 -82.3922 323° Northwest 455 524 28,600 1,560 Climbing Jacksonville Center
07:36AM 28.5289 -82.4200 348° North 427 491 29,600 1,080 Climbing Jacksonville Center
07:37AM 28.6417 -82.4478 348° North 413 475 30,800 1,140 Climbing Jacksonville Center
07:38AM 28.7522 -82.4664 352° North 407 468 31,900 540 Climbing Jacksonville Center
07:39AM 28.8631 -82.4919 349° North 407 468 31,900  Level Jacksonville Center
07:40AM 28.9717 -82.5106 351° North 402 463 31,900  Level Jacksonville Center
07:41AM 29.0803 -82.5386 347° North 397 457 31,900  Level Jacksonville Center
07:42AM 29.1908 -82.5547 353° North 392 451 31,900  Level Jacksonville Center
07:43AM 29.2953 -82.5806 348° North 392 451 31,900  Level Jacksonville Center
07:44AM 29.4081 -82.5994 352° North 392 451 31,900 300 Level Jacksonville Center
07:45AM 29.5167 -82.5967 North 387 445 32,500 480 Climbing Jacksonville Center
07:46AM 29.6294 -82.5986 359° North 387 445 32,900 180 Climbing Jacksonville Center
07:47AM 29.7381 -82.6128 354° North 387 445 32,900  Level Jacksonville Center
07:48AM 29.8508 -82.6219 356° North 392 451 32,900  Level Jacksonville Center
07:49AM 29.9719 -82.6528 348° North 397 457 32,900  Level Jacksonville Center
07:50AM 30.0722 -82.6597 357° North 400 460 32,900  Level Jacksonville Center
07:51AM 30.1808 -82.6811 350° North 400 460 32,900  Level Jacksonville Center
07:52AM 30.2894 -82.6953 354° North 395 455 32,900  Level Jacksonville Center
07:53AM 30.4022 -82.7192 350° North 395 455 32,900  Level Jacksonville Center
07:54AM 30.5108 -82.7311 355° North 389 448 32,900  Level Jacksonville Center
07:55AM 30.6256 -82.7597 348° North 389 448 32,900  Level Jacksonville Center
07:56AM 30.7361 -82.7742 354° North 389 448 32,900  Level Jacksonville Center
07:57AM 30.8469 -82.7958 350° North 389 448 32,900  Level Jacksonville Center
07:58AM 30.9556 -82.8103 353° North 389 448 32,900  Level Jacksonville Center
07:59AM 31.0642 -82.8344 349° North 389 448 32,900  Level Jacksonville Center
08:00AM 31.1622 -82.8439 355° North 389 448 33,000  Climbing Jacksonville Center
08:01AM 31.2478 -82.8586 352° North 389 448 33,000  Level Jacksonville Center
08:03AM 31.4428 -82.8900 352° North 404 465 33,000  Level Atlanta Center
08:04AM 31.5453 -82.9106 350° North 404 465 33,000  Level Atlanta Center
08:05AM 31.6561 -82.9239 354° North 399 459 33,000  Level Atlanta Center
08:06AM 31.7628 -82.9494 348° North 393 452 33,000  Level Atlanta Center
08:07AM 31.8714 -82.9603 355° North 387 445 33,000  Level Atlanta Center
08:08AM 31.9800 -82.9861 349° North 387 445 33,000  Level Atlanta Center
08:09AM 32.0867 -82.9969 355° North 387 445 33,000  Level Atlanta Center
08:10AM 32.1933 -83.0203 350° North 387 445 33,000  Level Atlanta Center
08:11AM 32.3019 -83.0364 353° North 387 445 33,000  Level Atlanta Center
08:12AM 32.4064 -83.0597 349° North 392 451 33,000  Level Atlanta Center
08:13AM 32.5131 -83.0733 354° North 387 445 33,000  Level Atlanta Center
08:14AM 32.6217 -83.0942 351° North 387 445 33,000 -180 Level Atlanta Center
08:15AM 32.7283 -83.1128 352° North 392 451 32,700 -540 Descending Atlanta Center
08:16AM 32.8411 -83.1364 350° North 386 444 32,000 -360 Descending Atlanta Center
08:17AM 32.9478 -83.1550 352° North 386 444 32,000  Level Atlanta Center
08:18AM 33.0544 -83.1764 350° North 386 444 32,000  Level Atlanta Center
08:19AM 33.1653 -83.1975 351° North 391 450 32,000  Level Atlanta Center
08:20AM 33.2697 -83.2189 350° North 391 450 32,000  Level Atlanta Center
08:21AM 33.3761 -83.2378 352° North 391 450 32,000  Level Atlanta Center
08:22AM 33.4828 -83.2567 352° North 391 450 32,000  Level Atlanta Center
08:23AM 33.5894 -83.2783 350° North 391 450 32,000  Level Atlanta Center
08:24AM 33.6961 -83.2972 352° North 391 450 32,000  Level Atlanta Center
08:25AM 33.8025 -83.3164 351° North 386 444 32,000  Level Atlanta Center
08:26AM 33.8778 -83.3308 351° North 392 451 32,000  Level Atlanta Center
08:27AM 34.0053 -83.3572 350° North 392 451 32,000  Level Atlanta Center
08:28AM 34.1117 -83.3764 352° North 385 443 32,000  Level Atlanta Center
08:29AM 34.2142 -83.3983 350° North 385 443 32,000  Level Atlanta Center
08:30AM 34.3206 -83.4125 354° North 385 443 32,000  Level Atlanta Center
08:31AM 34.4272 -83.4394 348° North 390 449 32,000  Level Atlanta Center
08:32AM 34.5358 -83.4564 353° North 390 449 32,000  Level Atlanta Center
08:33AM 34.6403 -83.4783 350° North 390 449 32,000  Level Atlanta Center
08:34AM 34.7511 -83.4978 352° North 390 449 32,000  Level Atlanta Center
08:35AM 34.8533 -83.5275 347° North 390 449 32,000  Level Atlanta Center
08:36AM 34.9578 -83.5444 352° North 390 449 32,000  Level Atlanta Center
08:37AM 35.0622 -83.5667 350° North 385 443 32,000  Level Atlanta Center
08:38AM 35.1686 -83.5839 352° North 385 443 32,000  Level Atlanta Center
08:39AM 35.2711 -83.6089 349° North 385 443 32,000  Level Atlanta Center
08:40AM 35.3756 -83.6286 351° North 380 437 32,000  Level Atlanta Center
08:41AM 35.4778 -83.6486 351° North 375 432 32,000  Level Atlanta Center
08:42AM 35.5822 -83.6686 351° North 375 432 32,000  Level Atlanta Center
08:43AM 35.6864 -83.6883 351° North 375 432 32,000  Level Atlanta Center
08:44AM 35.7783 -83.7469 333° Northwest 370 426 32,000  Level Atlanta Center
08:45AM 35.8642 -83.8208 325° Northwest 370 426 32,000  Level Atlanta Center
08:46AM 35.9561 -83.8875 330° Northwest 370 426 32,000  Level Atlanta Center
08:48AM 36.1403 -83.9253 351° North 381 438 32,000  Level Indianapolis Center
08:49AM 36.2431 -83.9489 350° North 378 435 32,000  Level Indianapolis Center
08:50AM 36.3669 -83.9631 355° North 375 432 32,000  Level Indianapolis Center
08:51AM 36.4708 -83.9822 352° North 376 433 32,000  Level Indianapolis Center
08:52AM 36.5719 -83.9919 356° North 377 434 32,000  Level Indianapolis Center
08:53AM 36.6736 -84.0136 350° North 370 426 32,000  Level Indianapolis Center
08:54AM 36.7772 -84.0214 357° North 369 425 32,000  Level Indianapolis Center
08:55AM 36.8983 -84.0286 357° North 380 437 32,000  Level Indianapolis Center
08:56AM 37.0044 -84.0169 North 381 438 32,000  Level Indianapolis Center
08:57AM 37.1092 -84.0139 North 381 438 32,000  Level Indianapolis Center
08:58AM 37.2139 -83.9981 North 377 434 32,000  Level Indianapolis Center
08:59AM 37.3169 -83.9967 North 371 427 32,000  Level Indianapolis Center
09:00AM 37.4228 -83.9792 North 379 436 32,000  Level Indianapolis Center
09:01AM 37.5258 -83.9792 360° North 371 427 32,000  Level Indianapolis Center
09:02AM 37.6481 -83.9625 North 373 429 32,000  Level Indianapolis Center
09:03AM 37.7503 -83.9608 North 370 426 32,000  Level Indianapolis Center
09:04AM 37.8522 -83.9453 North 368 423 32,000  Level Indianapolis Center
09:05AM 37.9522 -83.9442 North 361 415 32,000  Level Indianapolis Center
09:06AM 38.0511 -83.9286 North 358 412 32,000  Level Indianapolis Center
09:07AM 38.1528 -83.9253 North 365 420 32,000  Level Indianapolis Center
09:08AM 38.2706 -83.9092 North 366 421 32,000  Level Indianapolis Center
09:09AM 38.3681 -83.9103 359° North 351 404 32,000  Level Indianapolis Center
09:10AM 38.4683 -83.8939 North 359 413 32,000  Level Indianapolis Center
09:11AM 38.5669 -83.8917 North 354 407 32,000 -60 Level Indianapolis Center
09:12AM 38.6764 -83.8775 North 362 417 31,900 -60 Descending Indianapolis Center
09:13AM 38.7750 -83.8753 North 352 405 31,900  Level Indianapolis Center
09:14AM 38.8764 -83.8606 North 360 414 31,900  Level Indianapolis Center
09:16AM 38.9764 -83.8583 North 356 410 31,900  Level Indianapolis Center
09:17AM 39.0769 -83.8450 North 358 412 31,900  Level Indianapolis Center
09:18AM 39.1753 -83.8369 North 352 405 31,900  Level Indianapolis Center
09:19AM 39.2750 -83.8253 North 354 407 31,900 -480 Level Indianapolis Center
09:20AM 39.3900 -83.8233 North 351 404 31,000 -2,460 Descending Indianapolis Center
09:21AM 39.4897 -83.8083 North 356 410 26,900 -2,820 Descending Indianapolis Center
09:22AM 39.5975 -83.8075 360° North 376 433 25,200 -1,020 Descending Indianapolis Center
09:23AM 39.6950 -83.7861 10° North 353 406 24,900 -120 Descending Indianapolis Center
09:24AM 39.7933 -83.7531 14° North 357 411 25,000  Climbing Indianapolis Center
09:25AM 39.8936 -83.7447 North 354 407 25,000 -300 Level Indianapolis Center
09:26AM 39.9936 -83.7442 360° North 351 404 24,500 -540 Descending Indianapolis Center
09:27AM 40.0908 -83.7328 North 345 397 24,000 -300 Descending Indianapolis Center
09:28AM 40.1869 -83.7303 North 341 392 23,900 -480 Descending Indianapolis Center
09:29AM 40.2825 -83.7172 North 340 391 23,100 -1,320 Descending Indianapolis Center
09:30AM 40.3892 -83.7178 360° North 326 375 21,200 -2,100 Descending Indianapolis Center
09:31AM 40.4775 -83.7025 North 317 365 18,800 -2,040 Descending Indianapolis Center
09:32AM 40.5661 -83.7042 359° North 315 362 17,000 -900 Descending Indianapolis Center
09:33AM 40.6581 -83.6911 North 328 377 17,000  Level Indianapolis Center
09:34AM 40.7492 -83.6917 360° North 324 373 17,000 -480 Level Indianapolis Center
09:35AM 40.8400 -83.6781 North 326 375 16,000 -1,680 Descending Indianapolis Center
09:36AM 40.9289 -83.6775 360° North 318 366 13,600 -2,040 Descending Indianapolis Center
09:37AM 41.0181 -83.6708 North 317 365 11,800 -1,440 Descending Indianapolis Center
09:38AM 41.1036 -83.7050 343° North 280 322 10,700 -1,320 Descending Indianapolis Center
09:39AM 41.1308 -83.7233 333° Northwest 271 312 10,000 -1,740 Descending Cleveland Center
09:40AM 41.1989 -83.7514 343° North 259 298 8,400 -1,680 Descending Cleveland Center
09:41AM 41.2667 -83.7850 340° North 259 298 6,700 -1,560 Descending Cleveland Center
09:42AM 41.3306 -83.8131 342° North 253 291 5,300 -1,380 Descending Cleveland Center
09:43AM 41.3944 -83.8467 338° Northwest 258 297 4,000 2,820 Descending Cleveland Center
09:44AM 41.4703 -83.8867 338° Northwest 258 297 11,000 6,960 Climbing Cleveland Center
09:46AM 41.5833 -83.8000 323° Northwest  Level FlightAware Approximate
09:53AM 41.5868 -83.8078 323° Northwest  Level Estimated
09:54AM 41.5833 -83.8000 323° Northwest  Level FlightAware Approximate
09:55AM 41.5868 -83.8078 323° Northwest  Level Estimated